Time;durP1;ratioP1;P1;durP2;ratioP2;P2;SDS_P1;SDS_P2;PMS_P1;PMS_P2;Temp;Humidity;BMP_temperature;BMP_pressure;BME280_temperature;BME280_humidity;BME280_pressure;Samples;Min_cycle;Max_cycle;Signal;HPM_P1;HPM_P2
2022/03/14 00:02:03;;;;;;;40.70;14.68;;;;;;;7.28;45.85;99164.25;5227001;28;20087;-70
2022/03/14 00:04:54;;;;;;;26.02;14.20;;;;;;;7.23;45.28;99169.91;5231911;28;20430;-69
2022/03/14 00:07:46;;;;;;;25.85;13.48;;;;;;;7.29;46.06;99182.63;5208832;28;20556;-69
2022/03/14 00:10:36;;;;;;;31.05;14.55;;;;;;;7.40;46.44;99180.94;5222629;28;20044;-68
2022/03/14 00:13:28;;;;;;;30.58;14.07;;;;;;;7.36;45.81;99188.25;5222282;28;20052;-69
2022/03/14 00:16:24;;;;;;;27.83;14.60;;;;;;;7.36;45.82;99217.28;5223054;28;20108;-70
2022/03/14 00:19:15;;;;;;;30.55;15.05;;;;;;;7.19;46.80;99223.00;5223604;28;20080;-69
2022/03/14 00:22:06;;;;;;;29.95;15.48;;;;;;;7.44;46.89;99230.69;5222766;28;20060;-69
2022/03/14 00:24:56;;;;;;;37.97;16.48;;;;;;;7.51;46.76;99249.53;5222737;28;20045;-69
2022/03/14 00:27:46;;;;;;;34.50;16.98;;;;;;;7.59;47.70;99257.72;5218104;28;20056;-69
2022/03/14 00:30:35;;;;;;;41.50;18.23;;;;;;;7.46;47.82;99241.16;5222679;28;20052;-69
2022/03/14 00:33:26;;;;;;;37.67;17.55;;;;;;;7.54;47.67;99260.69;5222666;28;20044;-69
2022/03/14 00:36:16;;;;;;;36.13;17.60;;;;;;;7.62;48.96;99262.75;5221678;28;20084;-69
2022/03/14 00:39:06;;;;;;;35.20;17.42;;;;;;;7.83;46.99;99283.16;5223139;28;20084;-69
2022/03/14 00:41:56;;;;;;;37.90;16.35;;;;;;;7.96;46.50;99303.22;5208487;28;20122;-68
2022/03/14 00:44:47;;;;;;;35.72;16.67;;;;;;;8.18;44.78;99288.34;5214652;28;20118;-69
2022/03/14 00:47:38;;;;;;;36.90;16.05;;;;;;;8.07;45.06;99293.59;5222146;28;20155;-69
2022/03/14 00:50:28;;;;;;;39.95;16.65;;;;;;;7.96;46.75;99308.50;5222580;28;20049;-69
2022/03/14 00:53:18;;;;;;;34.03;16.08;;;;;;;7.99;46.31;99323.25;5223008;28;20135;-69
2022/03/14 00:56:08;;;;;;;39.05;17.15;;;;;;;8.11;45.67;99326.72;5221837;28;20060;-68
2022/03/14 00:58:59;;;;;;;39.55;18.05;;;;;;;8.21;45.74;99328.56;5223606;28;20060;-69
2022/03/14 01:01:51;;;;;;;33.22;15.90;;;;;;;8.14;45.78;99329.97;5211555;28;20442;-69
2022/03/14 01:04:43;;;;;;;30.87;16.50;;;;;;;8.41;45.58;99342.88;5222221;28;20060;-68
2022/03/14 01:07:34;;;;;;;40.33;17.30;;;;;;;8.33;45.32;99352.31;5221178;28;20288;-68
2022/03/14 01:10:25;;;;;;;44.08;17.60;;;;;;;8.22;45.93;99355.81;5222101;28;20049;-68
2022/03/14 01:13:15;;;;;;;33.63;16.88;;;;;;;8.43;45.56;99353.28;5223400;28;20072;-68
2022/03/14 01:16:06;;;;;;;36.13;17.60;;;;;;;8.26;45.34;99351.94;5227186;28;20056;-67
2022/03/14 01:18:57;;;;;;;36.63;17.63;;;;;;;8.67;44.56;99361.91;5222256;28;20048;-67
2022/03/14 01:21:47;;;;;;;39.60;17.23;;;;;;;8.83;45.21;99372.09;5222059;28;20122;-67
2022/03/14 01:24:38;;;;;;;33.80;17.10;;;;;;;8.82;44.57;99373.06;5222086;28;20424;-67
2022/03/14 01:27:29;;;;;;;32.78;17.05;;;;;;;9.06;43.75;99374.69;5221847;28;20597;-67
2022/03/14 01:30:20;;;;;;;31.05;16.33;;;;;;;9.02;43.36;99383.84;5221829;28;20049;-67
2022/03/14 01:33:11;;;;;;;37.75;18.00;;;;;;;8.97;44.88;99396.59;5218315;28;20111;-67
2022/03/14 01:36:01;;;;;;;39.83;19.08;;;;;;;9.01;44.98;99403.34;5212703;28;20052;-68
2022/03/14 01:38:51;;;;;;;42.95;19.67;;;;;;;8.63;49.94;99416.00;5222729;28;20502;-67
2022/03/14 01:41:41;;;;;;;42.92;19.63;;;;;;;8.73;54.06;99413.47;5221661;28;20499;-67
2022/03/14 01:44:31;;;;;;;35.25;18.33;;;;;;;9.03;58.73;99425.19;5222598;28;20750;-67
2022/03/14 01:47:22;;;;;;;31.60;15.73;;;;;;;8.80;62.83;99446.38;5223467;28;20095;-67
2022/03/14 01:50:13;;;;;;;25.52;14.35;;;;;;;9.03;63.59;99460.41;5199491;28;20114;-67
2022/03/14 01:53:04;;;;;;;28.20;13.07;;;;;;;9.84;61.39;99468.84;5226347;28;20521;-67
2022/03/14 01:55:55;;;;;;;18.35;10.77;;;;;;;9.26;63.46;99471.81;5215311;28;20048;-69
2022/03/14 01:58:46;;;;;;;16.92;9.52;;;;;;;9.79;62.15;99487.75;5225672;28;20056;-68
2022/03/14 02:01:36;;;;;;;10.02;5.60;;;;;;;9.08;64.87;99512.97;5224002;28;20065;-67
2022/03/14 02:04:27;;;;;;;6.70;4.57;;;;;;;9.62;62.65;99493.59;5225262;28;20072;-67
2022/03/14 02:07:17;;;;;;;8.68;4.75;;;;;;;9.89;62.33;99516.97;5224517;28;20075;-66
2022/03/14 02:10:08;;;;;;;8.38;4.88;;;;;;;10.58;60.09;99527.13;5204701;28;20115;-67
2022/03/14 02:13:03;;;;;;;8.82;4.28;;;;;;;9.77;63.45;99540.03;5218705;28;20048;-68
2022/03/14 02:15:53;;;;;;;5.68;3.65;;;;;;;9.25;65.32;99538.09;5212931;28;20064;-69
2022/03/14 02:18:44;;;;;;;7.13;3.65;;;;;;;8.97;67.61;99564.06;5225600;28;20071;-68
2022/03/14 02:21:34;;;;;;;6.63;3.35;;;;;;;9.02;67.11;99558.41;5224628;28;20120;-69
2022/03/14 02:24:31;;;;;;;5.10;3.20;;;;;;;9.68;65.04;99566.41;5224048;28;20049;-69
2022/03/14 02:27:21;;;;;;;5.55;3.45;;;;;;;9.42;66.41;99579.91;5223925;28;20059;-69
2022/03/14 02:30:11;;;;;;;7.50;3.88;;;;;;;9.81;64.87;99588.28;5224960;28;20053;-69
2022/03/14 02:33:03;;;;;;;4.60;3.13;;;;;;;10.52;63.64;99592.13;5224902;28;20114;-69
2022/03/14 02:35:53;;;;;;;4.72;3.13;;;;;;;9.89;65.00;99589.31;5207887;28;20076;-68
2022/03/14 02:38:43;;;;;;;4.28;2.80;;;;;;;10.12;64.90;99605.16;5225406;28;20175;-69
2022/03/14 02:41:36;;;;;;;5.82;3.17;;;;;;;10.39;64.68;99612.66;5223163;28;20049;-69
2022/03/14 02:44:26;;;;;;;4.18;2.85;;;;;;;9.84;66.04;99598.63;5224314;28;20107;-69
2022/03/14 02:47:17;;;;;;;4.50;3.03;;;;;;;10.28;64.83;99610.91;5223702;28;20057;-69
2022/03/14 02:50:07;;;;;;;3.75;2.50;;;;;;;10.00;65.34;99614.97;5223974;28;20048;-69
2022/03/14 02:53:00;;;;;;;5.73;2.67;;;;;;;10.08;64.87;99632.88;5225277;28;20037;-69
2022/03/14 02:55:50;;;;;;;3.20;2.35;;;;;;;10.26;64.94;99635.84;5223229;28;20127;-68
2022/03/14 02:58:41;;;;;;;2.60;2.33;;;;;;;10.45;63.53;99643.13;5223899;28;20119;-68
2022/03/14 03:01:31;;;;;;;4.20;2.47;;;;;;;9.60;66.75;99652.59;5224369;28;20055;-69
2022/03/14 03:04:21;;;;;;;3.47;2.60;;;;;;;10.22;65.71;99648.47;5224532;28;20055;-68
2022/03/14 03:07:11;;;;;;;4.20;2.40;;;;;;;9.44;68.57;99644.19;5223232;28;20198;-69
2022/03/14 03:10:03;;;;;;;4.22;2.33;;;;;;;9.32;68.67;99642.50;5213281;28;20442;-68
2022/03/14 03:12:53;;;;;;;4.00;2.38;;;;;;;9.32;68.82;99639.84;5220256;28;20095;-67
2022/03/14 03:15:43;;;;;;;3.40;2.30;;;;;;;8.99;71.76;99662.66;5209709;28;20057;-68
2022/03/14 03:18:33;;;;;;;3.83;2.78;;;;;;;9.53;69.88;99655.84;5209446;28;20547;-67
2022/03/14 03:21:23;;;;;;;4.00;2.50;;;;;;;9.48;70.35;99673.91;5222753;28;20049;-68
2022/03/14 03:24:14;;;;;;;5.82;2.50;;;;;;;9.57;69.30;99673.16;5223714;28;20045;-68
2022/03/14 03:27:04;;;;;;;3.53;2.65;;;;;;;10.04;68.05;99672.03;5223788;28;20150;-69
2022/03/14 03:29:54;;;;;;;4.13;2.63;;;;;;;10.12;67.41;99676.69;5222894;28;20427;-69
2022/03/14 03:32:44;;;;;;;4.05;2.75;;;;;;;9.79;69.23;99696.97;5223668;28;20055;-69
2022/03/14 03:35:34;;;;;;;3.72;2.72;;;;;;;9.46;71.24;99707.56;5216588;28;20048;-69
2022/03/14 03:38:25;;;;;;;5.03;2.90;;;;;;;10.08;69.75;99715.03;5224063;28;20107;-70
2022/03/14 03:41:15;;;;;;;4.75;2.80;;;;;;;9.20;72.31;99715.72;5223367;28;20072;-68
2022/03/14 03:44:06;;;;;;;4.30;2.80;;;;;;;9.50;71.54;99715.16;5223334;28;20122;-68
2022/03/14 03:46:56;;;;;;;4.70;2.83;;;;;;;9.42;71.81;99720.22;5221871;28;20616;-68
2022/03/14 03:49:46;;;;;;;4.70;3.08;;;;;;;9.06;73.59;99729.16;5220924;28;20103;-69
2022/03/14 03:52:36;;;;;;;5.78;2.97;;;;;;;8.60;74.75;99735.22;5218846;28;20045;-69
2022/03/14 03:55:26;;;;;;;6.30;2.88;;;;;;;9.72;70.42;99746.09;5207197;28;20060;-70
2022/03/14 03:58:16;;;;;;;3.42;2.42;;;;;;;9.84;69.21;99745.16;5217452;28;20526;-69
2022/03/14 04:01:08;;;;;;;3.85;2.50;;;;;;;9.97;69.10;99746.84;5222852;28;20136;-69
2022/03/14 04:04:01;;;;;;;4.65;2.50;;;;;;;10.03;68.40;99751.63;5222894;28;20051;-68
2022/03/14 04:06:56;;;;;;;3.92;2.83;;;;;;;9.66;69.50;99730.69;5222738;28;20142;-67
2022/03/14 04:09:47;;;;;;;3.00;2.40;;;;;;;10.03;68.28;99754.28;5222557;28;20067;-68
2022/03/14 04:12:38;;;;;;;3.85;2.22;;;;;;;10.03;68.29;99751.63;5223016;28;20068;-68
2022/03/14 04:15:30;;;;;;;3.47;2.58;;;;;;;10.06;68.68;99759.34;5222736;28;20080;-68
2022/03/14 04:18:24;;;;;;;5.35;2.78;;;;;;;10.24;67.89;99768.47;5223179;28;20138;-68
2022/03/14 04:21:15;;;;;;;3.78;2.72;;;;;;;9.97;67.88;99738.88;5222539;28;20052;-67
2022/03/14 04:24:06;;;;;;;3.38;2.38;;;;;;;10.14;66.78;99775.47;5222850;28;20538;-68
2022/03/14 04:26:57;;;;;;;3.50;2.80;;;;;;;10.18;67.18;99782.22;5221472;28;20186;-69
2022/03/14 04:29:48;;;;;;;5.03;2.75;;;;;;;10.03;68.08;99765.75;5211642;28;20407;-67
2022/03/14 04:32:37;;;;;;;5.05;2.60;;;;;;;10.16;67.97;99786.78;5222502;28;20056;-67
2022/03/14 04:35:28;;;;;;;4.10;2.75;;;;;;;10.23;67.52;99784.50;5222717;28;20116;-68
2022/03/14 04:38:18;;;;;;;5.65;3.00;;;;;;;10.15;68.52;99785.09;5223013;28;20059;-67
2022/03/14 04:41:09;;;;;;;7.32;3.03;;;;;;;10.14;67.98;99798.50;5222824;28;20079;-67
2022/03/14 04:43:59;;;;;;;5.75;3.10;;;;;;;10.16;67.33;99820.41;5222689;28;20672;-70
2022/03/14 04:46:49;;;;;;;5.07;3.08;;;;;;;9.86;68.92;99812.06;5222518;28;20048;-70
2022/03/14 04:49:39;;;;;;;4.30;2.60;;;;;;;10.02;68.52;99810.88;5220755;28;20153;-70
2022/03/14 04:52:29;;;;;;;4.95;3.10;;;;;;;10.12;68.47;99844.47;5213596;28;20060;-70
2022/03/14 04:55:20;;;;;;;5.80;2.95;;;;;;;10.07;68.66;99846.66;5222511;28;20110;-71
2022/03/14 04:58:12;;;;;;;4.18;3.35;;;;;;;10.10;68.51;99838.47;5222099;28;20083;-67
2022/03/14 05:01:03;;;;;;;7.53;3.75;;;;;;;10.16;68.57;99855.69;5221262;28;20107;-67
2022/03/14 05:03:53;;;;;;;6.35;3.47;;;;;;;10.16;68.40;99849.53;5216360;28;20060;-68
2022/03/14 05:06:44;;;;;;;5.20;3.22;;;;;;;10.12;69.23;99856.91;5211077;28;20122;-68
2022/03/14 05:09:34;;;;;;;6.43;3.85;;;;;;;10.14;68.13;99856.78;5222413;28;20123;-69
2022/03/14 05:12:24;;;;;;;5.60;3.30;;;;;;;10.07;68.74;99865.22;5222072;28;20529;-68
2022/03/14 05:15:18;;;;;;;4.28;2.92;;;;;;;9.62;70.20;99856.34;5222188;28;20052;-68
2022/03/14 05:18:08;;;;;;;9.60;3.78;;;;;;;9.79;69.25;99831.22;5222034;28;20060;-68
2022/03/14 05:20:58;;;;;;;5.65;3.70;;;;;;;9.92;69.13;99857.59;5214359;28;20061;-67
2022/03/14 05:23:49;;;;;;;7.50;3.42;;;;;;;10.03;69.21;99854.97;5219398;28;20185;-69
2022/03/14 05:26:39;;;;;;;5.57;3.75;;;;;;;10.09;67.86;99854.47;5225742;28;20055;-69
2022/03/14 05:29:29;;;;;;;11.35;4.18;;;;;;;9.97;67.63;99869.53;5225236;28;20554;-67
2022/03/14 05:32:20;;;;;;;7.05;4.32;;;;;;;10.08;67.57;99884.59;5225910;28;20049;-67
2022/03/14 05:35:11;;;;;;;4.90;3.47;;;;;;;10.16;67.51;99887.50;5240326;22;20090;-66
2022/03/14 05:38:02;;;;;;;9.45;3.40;;;;;;;10.12;67.55;99886.03;5207902;28;20068;-65
2022/03/14 05:40:52;;;;;;;4.13;3.05;;;;;;;10.04;67.99;99896.41;5207390;28;20409;-66
2022/03/14 05:43:43;;;;;;;4.88;3.45;;;;;;;10.06;68.18;99905.06;5216783;28;20060;-66
2022/03/14 05:46:34;;;;;;;7.63;3.10;;;;;;;10.04;66.68;99912.31;5213584;28;20057;-66
2022/03/14 05:49:24;;;;;;;6.25;2.90;;;;;;;10.11;67.19;99913.53;5224482;28;20091;-67
2022/03/14 05:52:15;;;;;;;2.80;2.28;;;;;;;10.02;66.91;99909.75;5225053;28;20049;-68
2022/03/14 05:55:06;;;;;;;3.33;2.00;;;;;;;10.17;66.30;99920.16;5224363;28;20060;-65
2022/03/14 05:57:56;;;;;;;4.07;2.20;;;;;;;10.18;65.14;99922.69;5223500;28;20055;-67
2022/03/14 06:00:48;;;;;;;3.53;1.73;;;;;;;10.07;66.20;99939.41;5220190;28;20052;-67
2022/03/14 06:03:38;;;;;;;4.30;2.33;;;;;;;10.08;65.77;99941.09;5218220;28;20144;-66
2022/03/14 06:06:28;;;;;;;5.38;1.90;;;;;;;10.04;64.73;99942.28;5225556;28;20049;-66
2022/03/14 06:09:18;;;;;;;5.45;1.85;;;;;;;10.08;64.04;99953.50;5225423;28;20110;-66
2022/03/14 06:12:09;;;;;;;6.70;2.30;;;;;;;10.21;62.97;99945.47;5225543;28;20056;-66
2022/03/14 06:15:02;;;;;;;7.47;2.65;;;;;;;9.41;65.32;99962.91;5224577;28;20056;-67
2022/03/14 06:17:54;;;;;;;6.45;1.95;;;;;;;9.80;63.83;99947.66;5217283;28;20056;-67
2022/03/14 06:20:44;;;;;;;6.25;1.23;;;;;;;9.93;63.54;99967.91;5214917;28;20771;-67
2022/03/14 06:23:35;;;;;;;6.38;1.35;;;;;;;9.79;63.21;99974.25;5220787;28;20049;-65
2022/03/14 06:26:25;;;;;;;7.25;1.40;;;;;;;9.94;63.39;99973.09;5221422;28;20134;-65
2022/03/14 06:29:15;;;;;;;6.03;1.20;;;;;;;9.72;63.00;99954.47;5220396;28;20529;-65
2022/03/14 06:32:05;;;;;;;5.47;1.48;;;;;;;9.85;63.38;99971.13;5221109;28;20052;-66
2022/03/14 06:34:57;;;;;;;5.60;1.35;;;;;;;9.83;63.90;99968.63;5219769;28;20061;-65
2022/03/14 06:37:49;;;;;;;6.95;1.45;;;;;;;9.98;63.81;99985.16;5218876;28;20049;-65
2022/03/14 06:40:41;;;;;;;8.18;1.92;;;;;;;9.80;64.14;99990.03;5219599;28;20156;-64
2022/03/14 06:43:32;;;;;;;9.82;1.70;;;;;;;9.78;62.91;99993.75;5220532;28;20045;-65
2022/03/14 06:46:23;;;;;;;7.85;1.60;;;;;;;9.77;62.12;100006.16;5220753;28;20072;-66
2022/03/14 06:49:17;;;;;;;7.68;1.90;;;;;;;10.30;61.70;100017.19;5217028;28;20156;-65
2022/03/14 06:52:07;;;;;;;7.15;1.77;;;;;;;10.29;61.32;100019.94;5217038;28;20060;-66
2022/03/14 06:54:58;;;;;;;10.18;1.90;;;;;;;10.21;62.76;100001.13;5216464;28;20658;-65
2022/03/14 06:57:49;;;;;;;12.30;2.47;;;;;;;10.41;61.32;100031.44;5216525;28;20562;-65
2022/03/14 07:00:40;;;;;;;5.93;1.90;;;;;;;10.40;61.40;100029.72;5223070;28;20049;-64
2022/03/14 07:03:30;;;;;;;16.10;2.42;;;;;;;9.41;62.10;100028.22;5210130;28;20048;-65
2022/03/14 07:06:20;;;;;;;7.30;1.30;;;;;;;9.65;60.95;100031.72;5223345;28;20474;-66
2022/03/14 07:09:10;;;;;;;6.85;1.20;;;;;;;10.03;58.18;100029.84;5223445;28;20113;-65
2022/03/14 07:12:00;;;;;;;9.68;1.30;;;;;;;9.83;59.71;100040.13;5222477;28;20059;-66
2022/03/14 07:14:51;;;;;;;7.75;1.70;;;;;;;9.62;60.43;100039.88;5223642;28;20130;-66
2022/03/14 07:17:41;;;;;;;12.20;1.70;;;;;;;10.05;58.63;100001.44;5228035;28;20136;-66
2022/03/14 07:20:31;;;;;;;12.18;1.70;;;;;;;10.42;59.00;100052.50;5223037;28;20122;-67
2022/03/14 07:23:21;;;;;;;7.75;1.48;;;;;;;10.48;58.88;100051.22;5218672;28;20047;-68
2022/03/14 07:26:11;;;;;;;8.93;1.52;;;;;;;11.02;56.50;100059.34;5216694;28;20493;-66
2022/03/14 07:29:02;;;;;;;5.30;1.33;;;;;;;10.64;58.54;100059.69;5216405;28;20052;-66
2022/03/14 07:31:52;;;;;;;8.88;1.45;;;;;;;11.11;57.12;100065.75;5217302;28;20057;-66
2022/03/14 07:34:42;;;;;;;11.93;1.42;;;;;;;11.94;54.52;100067.91;5217879;28;20088;-65
2022/03/14 07:37:32;;;;;;;10.13;1.55;;;;;;;11.21;55.24;100076.47;5219698;28;20544;-66
2022/03/14 07:40:23;;;;;;;8.18;1.70;;;;;;;11.15;55.80;100083.09;5216896;28;20056;-66
2022/03/14 07:43:14;;;;;;;8.10;1.33;;;;;;;11.87;53.90;100084.50;5209124;28;20135;-66
2022/03/14 07:46:04;;;;;;;7.05;1.60;;;;;;;13.46;51.16;100086.09;5208477;28;20060;-66
2022/03/14 07:48:54;;;;;;;11.23;1.60;;;;;;;13.59;48.15;100090.19;5220858;28;20107;-65
2022/03/14 07:51:45;;;;;;;10.15;1.50;;;;;;;12.33;51.68;100112.59;5218185;28;20474;-65
2022/03/14 07:54:38;;;;;;;9.27;2.00;;;;;;;12.93;51.96;100121.69;5219568;28;20533;-65
2022/03/14 07:57:29;;;;;;;8.20;1.50;;;;;;;12.33;53.49;100118.75;5220079;28;20060;-65
2022/03/14 08:00:20;;;;;;;10.18;1.63;;;;;;;11.15;54.82;100124.75;5213868;28;20060;-66
2022/03/14 08:03:10;;;;;;;10.93;1.70;;;;;;;10.20;57.23;100124.84;5213176;28;20068;-64
2022/03/14 08:06:00;;;;;;;10.23;1.88;;;;;;;10.93;55.72;100131.72;5210507;28;20049;-66
2022/03/14 08:08:53;;;;;;;6.47;2.03;;;;;;;10.36;56.00;100132.50;5212576;28;20132;-65
2022/03/14 08:11:43;;;;;;;9.48;1.80;;;;;;;10.77;55.25;100147.13;5222070;28;20045;-67
2022/03/14 08:14:33;;;;;;;12.30;1.52;;;;;;;11.56;54.01;100150.69;5214038;28;20522;-64
2022/03/14 08:17:24;;;;;;;8.63;1.27;;;;;;;11.78;54.22;100149.81;5209364;28;20056;-66
2022/03/14 08:20:13;;;;;;;12.90;1.80;;;;;;;11.56;54.03;100133.94;5218325;28;20075;-66
2022/03/14 08:23:04;;;;;;;10.10;1.55;;;;;;;11.34;54.10;100169.28;5215192;28;20055;-67
2022/03/14 08:25:54;;;;;;;14.07;2.03;;;;;;;12.04;53.67;100166.34;5211448;28;20050;-66
2022/03/14 08:28:44;;;;;;;11.45;1.85;;;;;;;12.53;52.16;100172.13;5219233;28;20060;-66
2022/03/14 08:31:35;;;;;;;10.32;1.92;;;;;;;12.31;51.41;100178.38;5222208;28;20446;-65
2022/03/14 08:34:26;;;;;;;16.20;2.00;;;;;;;12.91;50.63;100182.19;5220758;28;20045;-65
2022/03/14 08:37:16;;;;;;;11.00;2.17;;;;;;;14.46;48.25;100172.13;5218781;28;20137;-65
2022/03/14 08:40:09;;;;;;;9.00;1.27;;;;;;;14.80;46.82;100174.41;5219170;28;20045;-66
2022/03/14 08:43:00;;;;;;;11.50;1.60;;;;;;;14.93;47.36;100182.97;5214595;28;20128;-68
2022/03/14 08:45:50;;;;;;;3.83;1.05;;;;;;;15.68;44.95;100175.03;5217166;28;20287;-67
2022/03/14 08:48:45;;;;;;;9.52;1.83;;;;;;;16.81;42.91;100182.59;5217940;28;20053;-66
2022/03/14 08:51:35;;;;;;;8.50;1.40;;;;;;;15.11;45.86;100177.75;5216456;28;20083;-66
2022/03/14 08:54:25;;;;;;;8.10;1.85;;;;;;;13.04;48.26;100187.34;5221026;28;20131;-65
2022/03/14 08:57:18;;;;;;;10.63;2.00;;;;;;;14.04;48.28;100192.88;5221768;28;20060;-65
2022/03/14 09:00:09;;;;;;;11.23;1.17;;;;;;;13.71;49.52;100191.34;5224718;28;20049;-66
2022/03/14 09:03:02;;;;;;;7.60;1.35;;;;;;;13.73;48.20;100192.06;5223313;28;20449;-65
2022/03/14 09:05:56;;;;;;;7.57;1.10;;;;;;;13.46;48.29;100193.50;5223176;28;20045;-66
2022/03/14 09:08:46;;;;;;;9.53;1.30;;;;;;;12.54;49.94;100189.75;5224756;28;20550;-65
2022/03/14 09:11:37;;;;;;;5.88;1.25;;;;;;;12.92;48.34;100192.72;5224054;28;20045;-65
2022/03/14 09:14:27;;;;;;;11.55;1.63;;;;;;;13.42;49.16;100199.22;5222930;28;20049;-66
2022/03/14 09:17:18;;;;;;;8.10;1.83;;;;;;;12.76;47.46;100200.31;5220981;28;20122;-68
2022/03/14 09:20:08;;;;;;;9.70;1.38;;;;;;;12.84;48.19;100202.31;5223745;28;20118;-65
2022/03/14 09:22:58;;;;;;;6.82;1.70;;;;;;;12.84;49.96;100212.97;5225560;28;20056;-65
2022/03/14 09:25:49;;;;;;;11.48;1.70;;;;;;;12.58;50.42;100210.69;5220726;28;20052;-66
2022/03/14 09:28:44;;;;;;;7.70;1.50;;;;;;;13.35;47.15;100209.56;5222949;28;20060;-66
2022/03/14 09:31:34;;;;;;;9.27;1.40;;;;;;;13.26;47.01;100194.38;5214882;28;20060;-65
2022/03/14 09:34:24;;;;;;;8.38;1.88;;;;;;;15.26;45.31;100199.47;5224950;28;20525;-66
2022/03/14 09:37:15;;;;;;;8.13;1.48;;;;;;;14.05;46.08;100197.22;5225422;28;20541;-66
2022/03/14 09:40:12;;;;;;;8.63;1.42;;;;;;;15.86;41.63;100194.69;5219728;28;20059;-66
2022/03/14 09:43:03;;;;;;;8.23;1.70;;;;;;;15.70;40.30;100191.78;5221990;28;20134;-66
2022/03/14 09:45:54;;;;;;;7.13;1.17;;;;;;;15.07;40.03;100199.56;5224959;28;20072;-67
2022/03/14 09:48:50;;;;;;;9.50;1.33;;;;;;;16.02;39.77;100190.50;5225634;28;20056;-66
2022/03/14 09:51:42;;;;;;;9.65;1.60;;;;;;;16.91;36.83;100198.59;5225424;28;20056;-67
2022/03/14 09:54:34;;;;;;;3.90;1.05;;;;;;;17.44;35.58;100194.94;5225137;28;20232;-68
2022/03/14 09:57:25;;;;;;;5.25;1.10;;;;;;;16.16;38.19;100212.25;5213914;28;20048;-67
2022/03/14 10:00:17;;;;;;;6.97;1.33;;;;;;;17.58;36.62;100215.81;5222331;28;20055;-67
2022/03/14 10:03:08;;;;;;;8.23;1.42;;;;;;;16.13;38.05;100217.06;5219327;28;20079;-68
2022/03/14 10:05:58;;;;;;;6.78;1.10;;;;;;;16.06;39.47;100215.94;5215851;28;20150;-67
2022/03/14 10:08:49;;;;;;;7.60;1.50;;;;;;;16.90;37.52;100196.91;5219087;28;20157;-67
2022/03/14 10:11:40;;;;;;;6.72;1.30;;;;;;;17.38;38.38;100219.69;5212326;28;20597;-67
2022/03/14 10:14:31;;;;;;;8.93;1.70;;;;;;;16.72;36.86;100221.00;5217612;28;20049;-67
2022/03/14 10:17:22;;;;;;;5.85;1.30;;;;;;;17.54;36.48;100213.59;5222634;28;20103;-67
2022/03/14 10:20:15;;;;;;;8.00;1.40;;;;;;;16.41;37.19;100221.38;5222531;28;20049;-67
2022/03/14 10:23:05;;;;;;;11.10;1.20;;;;;;;17.47;38.00;100218.75;5224485;28;20572;-67
2022/03/14 10:25:56;;;;;;;9.30;1.42;;;;;;;17.39;37.14;100221.41;5219937;28;20064;-67
2022/03/14 10:28:49;;;;;;;7.50;1.10;;;;;;;17.18;38.26;100229.78;5222577;28;20045;-67
2022/03/14 10:31:57;;;;;;;5.50;1.10;;;;;;;15.65;38.53;100208.22;5221060;28;20529;-67
2022/03/14 10:34:51;;;;;;;7.28;1.30;;;;;;;17.20;37.92;100222.44;5210524;28;20064;-67
2022/03/14 10:37:57;;;;;;;8.00;1.50;;;;;;;16.65;38.30;100219.91;5215370;28;20060;-68
2022/03/14 10:40:47;;;;;;;9.55;1.73;;;;;;;17.11;36.81;100218.00;5220493;28;20055;-67
2022/03/14 10:43:51;;;;;;;5.15;1.42;;;;;;;16.36;36.76;100218.31;5215415;28;20056;-67
2022/03/14 10:46:41;;;;;;;7.60;1.30;;;;;;;13.70;43.17;100233.16;5215925;28;20545;-67
2022/03/14 10:49:34;;;;;;;8.60;1.20;;;;;;;14.22;41.59;100233.06;5218727;28;20049;-67
2022/03/14 10:52:24;;;;;;;8.68;1.73;;;;;;;14.55;39.84;100227.38;5216172;28;20049;-67
2022/03/14 10:55:14;;;;;;;5.90;1.10;;;;;;;14.37;42.06;100223.69;5221718;28;20045;-67
2022/03/14 10:58:13;;;;;;;6.50;1.50;;;;;;;14.34;40.92;100235.47;5218200;28;20205;-69
2022/03/14 11:01:08;;;;;;;16.58;1.85;;;;;;;13.67;43.48;100248.56;5219377;28;20087;-68
2022/03/14 11:03:58;;;;;;;14.55;1.27;;;;;;;13.63;42.07;100230.16;5215946;28;20040;-67
2022/03/14 11:06:59;;;;;;;5.72;1.30;;;;;;;14.62;42.26;100240.16;5217074;28;20061;-69
2022/03/14 11:09:57;;;;;;;7.30;1.50;;;;;;;15.00;39.33;100234.84;5214572;28;20120;-66
2022/03/14 11:12:47;;;;;;;5.43;1.20;;;;;;;14.04;41.18;100240.88;5219534;28;20071;-67
2022/03/14 11:15:40;;;;;;;6.88;1.25;;;;;;;14.57;41.80;100222.75;5219212;28;20041;-67
2022/03/14 11:18:31;;;;;;;10.20;1.45;;;;;;;15.13;40.66;100220.31;5221032;28;20468;-67
2022/03/14 11:21:24;;;;;;;9.35;1.90;;;;;;;15.55;40.49;100228.81;5221898;28;20052;-69
2022/03/14 11:24:15;;;;;;;5.88;1.05;;;;;;;16.32;38.56;100216.06;5219709;28;20048;-72
2022/03/14 11:27:05;;;;;;;6.78;1.08;;;;;;;15.68;41.16;100220.50;5220852;28;20056;-67
2022/03/14 11:30:15;;;;;;;3.00;0.95;;;;;;;15.51;40.26;100214.91;5220263;28;20418;-67
2022/03/14 11:33:05;;;;;;;8.05;1.00;;;;;;;16.34;39.11;100214.94;5222540;28;20139;-67
2022/03/14 11:35:57;;;;;;;6.20;1.08;;;;;;;15.47;38.54;100204.66;5221128;28;20143;-67
2022/03/14 11:38:48;;;;;;;4.45;0.95;;;;;;;16.28;37.20;100222.72;5233782;28;20056;-67
2022/03/14 11:41:39;;;;;;;5.35;1.00;;;;;;;15.71;41.17;100204.16;5218270;28;20094;-67
2022/03/14 11:44:30;;;;;;;3.58;1.25;;;;;;;14.30;41.57;100219.84;5222351;28;20123;-67
2022/03/14 11:47:23;;;;;;;6.35;1.02;;;;;;;14.78;43.95;100206.59;5221140;28;20048;-67
2022/03/14 11:50:14;;;;;;;5.63;0.95;;;;;;;16.05;38.83;100187.50;5218713;28;20511;-65
2022/03/14 11:53:05;;;;;;;6.03;1.25;;;;;;;15.39;41.16;100191.16;5214614;28;20061;-68
2022/03/14 11:56:01;;;;;;;3.60;1.05;;;;;;;15.63;40.10;100187.97;5218555;28;20060;-67
2022/03/14 11:58:53;;;;;;;6.78;1.00;;;;;;;14.97;41.61;100189.72;5210635;28;20419;-69
2022/03/14 12:01:50;;;;;;;5.60;0.80;;;;;;;15.57;40.12;100183.22;5212840;28;20514;-68
2022/03/14 12:04:39;;;;;;;3.30;0.93;;;;;;;15.03;40.87;100180.28;5212760;28;20056;-69
2022/03/14 12:07:30;;;;;;;4.68;0.90;;;;;;;15.15;40.71;100180.97;5213720;28;21817;-70
2022/03/14 12:10:34;;;;;;;4.97;1.10;;;;;;;16.01;38.88;100181.63;5221715;28;20057;-68
2022/03/14 12:13:44;;;;;;;;;;;;;;;16.77;38.65;100180.41;5209649;28;20056;-68
2022/03/14 12:16:34;;;;;;;3.38;0.88;;;;;;;15.30;40.25;100176.84;5209357;28;19927;-69
2022/03/14 12:19:31;;;;;;;1.98;0.75;;;;;;;15.69;39.72;100182.94;5220513;28;20049;-67
2022/03/14 12:22:24;;;;;;;4.93;1.17;;;;;;;14.77;41.61;100174.72;5222170;28;20060;-68
2022/03/14 12:25:41;;;;;;;8.00;0.82;;;;;;;16.01;38.54;100162.06;5220050;28;20053;-68
2022/03/14 12:28:36;;;;;;;6.85;1.73;;;;;;;16.13;39.27;100164.38;5220114;28;20045;-67
2022/03/14 12:31:26;;;;;;;3.20;0.95;;;;;;;15.90;38.62;100166.63;5221402;28;20064;-68
2022/03/14 12:34:16;;;;;;;5.85;1.10;;;;;;;15.63;40.07;100161.22;5219822;28;20132;-67
2022/03/14 12:37:36;;;;;;;5.97;0.80;;;;;;;14.43;40.64;100179.56;5221140;28;20459;-68
2022/03/14 12:40:28;;;;;;;4.53;0.90;;;;;;;14.25;43.77;100198.94;5211500;28;20053;-67
2022/03/14 12:43:24;;;;;;;4.13;0.90;;;;;;;14.31;41.10;100190.41;5222631;28;20426;-70
2022/03/14 12:46:16;;;;;;;5.70;1.02;;;;;;;14.71;41.54;100188.63;5220073;28;20052;-68
2022/03/14 12:49:07;;;;;;;3.05;0.80;;;;;;;14.45;41.30;100194.47;5222404;28;20138;-67
2022/03/14 12:52:14;;;;;;;11.05;1.40;;;;;;;14.31;40.71;100190.41;5216366;28;20191;-68
2022/03/14 12:55:19;;;;;;;9.15;1.10;;;;;;;14.83;39.97;100192.81;5219529;28;20048;-67
2022/03/14 12:58:16;;;;;;;6.22;1.10;;;;;;;14.98;39.98;100193.22;5219632;28;20477;-70
2022/03/14 13:01:12;;;;;;;5.97;1.02;;;;;;;14.68;41.14;100179.06;5220522;28;20613;-71
2022/03/14 13:04:11;;;;;;;4.00;1.10;;;;;;;14.15;42.06;100168.75;5218464;28;20075;-68
2022/03/14 13:07:03;;;;;;;3.47;0.60;;;;;;;14.27;40.91;100193.47;5215551;28;20045;-67
2022/03/14 13:10:08;;;;;;;5.65;1.00;;;;;;;14.18;41.84;100191.63;5214749;28;20053;-68
2022/03/14 13:12:58;;;;;;;6.40;1.30;;;;;;;13.69;41.63;100190.66;5216684;28;20077;-67
2022/03/14 13:16:09;;;;;;;4.60;1.30;;;;;;;13.43;42.02;100191.09;5215054;28;20422;-69
2022/03/14 13:19:00;;;;;;;5.57;1.00;;;;;;;14.75;40.29;100195.34;5218169;28;20045;-68
2022/03/14 13:21:51;;;;;;;4.50;0.90;;;;;;;14.89;39.79;100210.09;5221204;28;20049;-68
2022/03/14 13:24:49;;;;;;;3.13;0.73;;;;;;;14.38;41.26;100201.34;5221191;28;20073;-67